Time;durP1;ratioP1;P1;durP2;ratioP2;P2;SDS_P1;SDS_P2;PMS_P1;PMS_P2;Temp;Humidity;BMP_temperature;BMP_pressure;BME280_temperature;BME280_humidity;BME280_pressure;Samples;Min_cycle;Max_cycle;Signal;HPM_P1;HPM_P2
2022/04/05 00:00:02;;;;;;;5.67;5.20;;;;;21.60;99270.00;;;;2070310;28;20780;-47
2022/04/05 00:01:02;;;;;;;4.83;4.43;;;;;21.60;99278.00;;;;2077389;28;20287;-47
2022/04/05 00:02:03;;;;;;;4.77;4.47;;;;;21.60;99283.00;;;;2079139;28;20460;-47
2022/04/05 00:03:03;;;;;;;5.67;5.17;;;;;21.60;99275.00;;;;2077514;28;20218;-47
2022/04/05 00:04:03;;;;;;;4.80;4.40;;;;;21.60;99273.00;;;;2071042;28;20217;-47
2022/04/05 00:05:04;;;;;;;4.70;4.40;;;;;21.50;99283.00;;;;2070902;28;20242;-47
2022/04/05 00:06:04;;;;;;;5.37;4.97;;;;;21.60;99277.00;;;;2070080;28;20217;-47
2022/04/05 00:07:05;;;;;;;4.83;4.43;;;;;21.60;99282.00;;;;2072250;28;20222;-47
2022/04/05 00:08:05;;;;;;;4.93;4.53;;;;;21.50;99270.00;;;;2079068;28;20547;-46
2022/04/05 00:09:05;;;;;;;5.20;4.80;;;;;21.50;99266.00;;;;2079222;28;20236;-47
2022/04/05 00:10:06;;;;;;;4.57;4.27;;;;;21.50;99277.00;;;;2074239;28;20253;-47
2022/04/05 00:11:06;;;;;;;5.47;5.07;;;;;21.50;99278.00;;;;2070297;28;20243;-47
2022/04/05 00:12:07;;;;;;;4.97;4.57;;;;;21.50;99272.00;;;;2070997;28;20251;-47
2022/04/05 00:13:07;;;;;;;5.00;4.70;;;;;21.50;99278.00;;;;2071108;28;20217;-47
2022/04/05 00:14:09;;;;;;;4.80;4.47;;;;;21.50;99269.00;;;;2070923;28;20309;-47
2022/04/05 00:15:09;;;;;;;4.93;4.55;;;;;21.50;99282.00;;;;2071926;28;20226;-47
2022/04/05 00:16:10;;;;;;;4.90;4.50;;;;;21.50;99282.00;;;;2078409;28;20213;-47
2022/04/05 00:17:10;;;;;;;5.33;4.90;;;;;21.50;99281.00;;;;2078842;28;20255;-46
2022/04/05 00:18:11;;;;;;;4.70;4.40;;;;;21.50;99281.00;;;;2078675;28;20457;-47
2022/04/05 00:19:11;;;;;;;4.83;4.53;;;;;21.50;99277.00;;;;2079067;28;20218;-47
2022/04/05 00:20:12;;;;;;;5.27;4.90;;;;;21.50;99277.00;;;;2079123;28;20221;-47
2022/04/05 00:21:12;;;;;;;4.80;4.50;;;;;21.50;99275.00;;;;2079208;28;20231;-47
2022/04/05 00:22:12;;;;;;;5.10;4.73;;;;;21.50;99276.00;;;;2078977;28;20218;-47
2022/04/05 00:23:13;;;;;;;4.90;4.60;;;;;21.50;99279.00;;;;2078263;28;20217;-47
2022/04/05 00:24:15;;;;;;;5.63;5.20;;;;;21.50;99280.00;;;;2078347;28;20229;-47
2022/04/05 00:25:15;;;;;;;4.95;4.65;;;;;21.50;99277.00;;;;2076117;28;20292;-47
2022/04/05 00:26:15;;;;;;;5.17;4.77;;;;;21.50;99265.00;;;;2069933;28;20218;-47
2022/04/05 00:27:16;;;;;;;5.20;4.90;;;;;21.40;99274.00;;;;2070717;28;20214;-46
2022/04/05 00:28:16;;;;;;;5.33;4.93;;;;;21.40;99268.00;;;;2070714;28;20221;-47
2022/04/05 00:29:19;;;;;;;5.90;5.50;;;;;21.40;99284.00;;;;2073447;28;20214;-46
2022/04/05 00:30:19;;;;;;;5.38;4.97;;;;;21.40;99280.00;;;;2078836;28;20217;-46
2022/04/05 00:31:19;;;;;;;5.60;5.20;;;;;21.40;99280.00;;;;2079026;28;20221;-46
2022/04/05 00:32:20;;;;;;;5.13;4.73;;;;;21.40;99277.00;;;;2079033;28;20225;-47
2022/04/05 00:33:20;;;;;;;5.37;4.97;;;;;21.40;99262.00;;;;2078464;28;20217;-47
2022/04/05 00:34:25;;;;;;;5.50;5.10;;;;;21.40;99278.00;;;;2078854;28;20252;-46
2022/04/05 00:35:25;;;;;;;5.50;5.10;;;;;21.40;99276.00;;;;2078077;28;20213;-47
2022/04/05 00:36:25;;;;;;;5.43;5.03;;;;;21.40;99270.00;;;;2078854;28;20217;-46
2022/04/05 00:37:26;;;;;;;5.87;5.37;;;;;21.40;99266.00;;;;2078434;28;20219;-46
2022/04/05 00:38:26;;;;;;;5.53;5.03;;;;;21.40;99270.00;;;;2078614;28;20229;-46
2022/04/05 00:39:27;;;;;;;5.30;5.00;;;;;21.40;99274.00;;;;2073982;28;20698;-46
2022/04/05 00:40:28;;;;;;;5.53;5.13;;;;;21.40;99273.00;;;;2070838;28;20214;-47
2022/04/05 00:41:29;;;;;;;5.90;5.40;;;;;21.40;99273.00;;;;2072969;28;20213;-47
2022/04/05 00:42:29;;;;;;;5.43;4.93;;;;;21.40;99280.00;;;;2078545;28;20217;-46
2022/04/05 00:43:29;;;;;;;5.20;4.80;;;;;21.40;99266.00;;;;2078749;28;20213;-46
2022/04/05 00:44:30;;;;;;;5.87;5.40;;;;;21.40;99267.00;;;;2078821;28;20213;-47
2022/04/05 00:45:30;;;;;;;5.40;5.00;;;;;21.40;99275.00;;;;2078222;28;20225;-47
2022/04/05 00:46:30;;;;;;;5.63;5.23;;;;;21.40;99268.00;;;;2078967;28;20233;-46
2022/04/05 00:47:31;;;;;;;5.57;5.17;;;;;21.40;99271.00;;;;2070356;28;20317;-46
2022/04/05 00:48:36;;;;;;;5.70;5.30;;;;;21.40;99270.00;;;;2070589;28;20256;-46
2022/04/05 00:49:36;;;;;;;6.00;5.60;;;;;21.30;99272.00;;;;2076942;28;20233;-47
2022/04/05 00:50:37;;;;;;;5.80;5.40;;;;;21.30;99274.00;;;;2069784;28;20218;-46
2022/04/05 00:51:37;;;;;;;5.85;5.40;;;;;21.30;99281.00;;;;2078118;28;20221;-46
2022/04/05 00:52:38;;;;;;;5.80;5.33;;;;;21.30;99283.00;;;;2078880;28;20286;-46
2022/04/05 00:53:38;;;;;;;5.40;5.07;;;;;21.40;99270.00;;;;2078875;28;20227;-46
2022/04/05 00:54:39;;;;;;;5.57;5.17;;;;;21.40;99269.00;;;;2069543;28;20214;-52
2022/04/05 00:55:39;;;;;;;5.23;4.83;;;;;21.30;99271.00;;;;2060814;28;20214;-47
2022/04/05 00:56:40;;;;;;;5.77;5.37;;;;;21.30;99282.00;;;;2077817;28;20471;-48
2022/04/05 00:57:40;;;;;;;5.77;5.37;;;;;21.30;99268.00;;;;2077531;28;20213;-47
2022/04/05 00:58:41;;;;;;;5.67;5.27;;;;;21.30;99274.00;;;;2069676;28;20241;-47
2022/04/05 00:59:42;;;;;;;5.60;5.20;;;;;21.30;99268.00;;;;2070034;28;20245;-47
2022/04/05 01:00:42;;;;;;;5.85;5.35;;;;;21.30;99275.00;;;;2077383;28;20225;-47
2022/04/05 01:01:43;;;;;;;5.63;5.30;;;;;21.30;99273.00;;;;2069791;28;20234;-47
2022/04/05 01:02:43;;;;;;;5.30;5.00;;;;;21.30;99276.00;;;;2069889;28;20214;-47
2022/04/05 01:03:48;;;;;;;5.67;5.27;;;;;21.30;99277.00;;;;2077976;28;20210;-46
2022/04/05 01:04:48;;;;;;;5.60;5.20;;;;;21.30;99273.00;;;;2078032;28;20210;-46
2022/04/05 01:05:49;;;;;;;5.53;5.13;;;;;21.30;99277.00;;;;2071014;28;20210;-45
2022/04/05 01:06:49;;;;;;;5.70;5.20;;;;;21.30;99272.00;;;;2065540;28;20203;-45
2022/04/05 01:07:49;;;;;;;5.27;4.90;;;;;21.30;99262.00;;;;2069718;28;20289;-46
2022/04/05 01:08:50;;;;;;;5.57;5.17;;;;;21.30;99281.00;;;;2078048;28;20206;-46
2022/04/05 01:09:53;;;;;;;5.43;5.03;;;;;21.30;99269.00;;;;2078039;28;20209;-46
2022/04/05 01:10:54;;;;;;;5.45;5.05;;;;;21.30;99280.00;;;;2078633;28;20208;-47
2022/04/05 01:11:55;;;;;;;5.47;5.07;;;;;21.30;99279.00;;;;2077818;28;20201;-47
2022/04/05 01:12:56;;;;;;;5.00;4.70;;;;;21.30;99288.00;;;;2069843;28;20202;-46
2022/04/05 01:13:56;;;;;;;5.40;4.90;;;;;21.30;99282.00;;;;2077845;28;20206;-47
2022/04/05 01:14:56;;;;;;;5.10;4.70;;;;;21.20;99286.00;;;;2070525;28;20953;-46
2022/04/05 01:15:56;;;;;;;5.37;4.97;;;;;21.20;99281.00;;;;2063846;28;20705;-46
2022/04/05 01:16:57;;;;;;;5.43;5.03;;;;;21.20;99288.00;;;;2069055;28;20214;-46
2022/04/05 01:17:57;;;;;;;5.40;5.00;;;;;21.30;99290.00;;;;2069405;28;20248;-46
2022/04/05 01:18:57;;;;;;;5.13;4.70;;;;;21.20;99297.00;;;;2060953;28;20733;-47
2022/04/05 01:19:58;;;;;;;4.57;4.23;;;;;21.30;99283.00;;;;2069233;28;20264;-46
2022/04/05 01:20:59;;;;;;;4.50;4.20;;;;;21.30;99290.00;;;;2069329;28;20218;-46
2022/04/05 01:21:59;;;;;;;5.27;4.93;;;;;21.20;99286.00;;;;2069556;28;21190;-46
2022/04/05 01:23:00;;;;;;;4.80;4.40;;;;;21.20;99290.00;;;;2073473;28;20217;-46
2022/04/05 01:24:10;;;;;;;4.90;4.60;;;;;21.20;99289.00;;;;2077716;28;20209;-46
2022/04/05 01:25:15;;;;;;;4.88;4.47;;;;;21.20;99289.00;;;;2078373;28;20589;-46
2022/04/05 01:26:15;;;;;;;4.50;4.20;;;;;21.20;99281.00;;;;2076976;28;20300;-47
2022/04/05 01:27:19;;;;;;;4.83;4.53;;;;;21.20;99293.00;;;;2076056;28;20775;-47
2022/04/05 01:28:19;;;;;;;4.60;4.30;;;;;21.20;99160.00;;;;2078480;28;20665;-47
2022/04/05 01:29:21;;;;;;;4.53;4.13;;;;;21.20;99287.00;;;;2078436;28;20303;-47
2022/04/05 01:30:21;;;;;;;4.60;4.30;;;;;21.20;99288.00;;;;2078279;28;20221;-46
2022/04/05 01:31:21;;;;;;;4.30;4.00;;;;;21.20;99290.00;;;;2078458;28;20233;-47
2022/04/05 01:32:22;;;;;;;4.00;3.70;;;;;21.20;99299.00;;;;2078202;28;20704;-46
2022/04/05 01:33:22;;;;;;;4.80;4.50;;;;;21.20;99290.00;;;;2078001;28;20773;-47
2022/04/05 01:34:25;;;;;;;4.93;4.57;;;;;21.20;99290.00;;;;2078137;28;20240;-46
2022/04/05 01:35:25;;;;;;;5.25;4.30;;;;;21.20;99286.00;;;;2077379;28;20218;-46
2022/04/05 01:36:25;;;;;;;4.93;4.43;;;;;21.20;99289.00;;;;2071590;28;20234;-46
2022/04/05 01:37:26;;;;;;;4.87;4.47;;;;;21.20;99288.00;;;;2069303;28;20840;-46
2022/04/05 01:38:26;;;;;;;4.87;4.57;;;;;21.20;99298.00;;;;2061144;28;20245;-46
2022/04/05 01:39:29;;;;;;;4.80;4.50;;;;;21.20;99300.00;;;;2061220;28;20214;-46
2022/04/05 01:40:29;;;;;;;4.93;4.45;;;;;21.20;99299.00;;;;2069018;28;20206;-47
2022/04/05 01:41:29;;;;;;;4.53;4.23;;;;;21.10;99290.00;;;;2070316;28;20294;-46
2022/04/05 01:42:30;;;;;;;4.63;4.33;;;;;21.20;99296.00;;;;2069707;28;20329;-46
2022/04/05 01:43:30;;;;;;;4.80;4.50;;;;;21.10;99293.00;;;;2069736;28;20736;-47
2022/04/05 01:44:32;;;;;;;4.00;3.70;;;;;21.10;99294.00;;;;2070434;28;20260;-46
2022/04/05 01:45:34;;;;;;;4.72;4.43;;;;;21.10;99292.00;;;;2069461;28;20625;-46
2022/04/05 01:46:34;;;;;;;4.45;4.15;;;;;21.10;99291.00;;;;2070425;28;20221;-46
2022/04/05 01:47:37;;;;;;;4.00;3.77;;;;;21.10;99291.00;;;;2070009;28;20256;-47
2022/04/05 01:48:39;;;;;;;4.70;4.40;;;;;21.10;99296.00;;;;2070136;28;20741;-46
2022/04/05 01:49:40;;;;;;;4.45;4.15;;;;;21.10;99286.00;;;;2074993;28;20711;-46
2022/04/05 01:50:40;;;;;;;4.70;4.40;;;;;21.10;99287.00;;;;2078328;28;20205;-46
2022/04/05 01:51:41;;;;;;;4.27;3.97;;;;;21.10;99293.00;;;;2069783;28;20455;-46
2022/04/05 01:52:41;;;;;;;4.20;3.90;;;;;21.10;99292.00;;;;2069954;28;20210;-47
2022/04/05 01:53:42;;;;;;;4.67;4.37;;;;;21.10;99297.00;;;;2078890;28;20889;-46
2022/04/05 01:54:43;;;;;;;4.20;3.90;;;;;21.10;99297.00;;;;2080332;28;20604;-47
2022/04/05 01:55:43;;;;;;;4.27;3.97;;;;;21.10;99297.00;;;;2079249;28;20221;-47
2022/04/05 01:56:45;;;;;;;4.10;3.80;;;;;21.10;99297.00;;;;2080236;28;20614;-46
2022/04/05 01:57:46;;;;;;;4.63;4.25;;;;;21.10;99293.00;;;;2075730;28;20205;-47
2022/04/05 01:58:48;;;;;;;4.07;3.77;;;;;21.00;99297.00;;;;2077705;28;20637;-46
2022/04/05 01:59:49;;;;;;;4.55;4.25;;;;;21.10;99292.00;;;;2071856;28;20210;-47
2022/04/05 02:00:49;;;;;;;4.47;4.07;;;;;21.10;99305.00;;;;2071965;28;20291;-47
2022/04/05 02:01:50;;;;;;;4.57;4.27;;;;;21.10;99292.00;;;;2072035;28;20214;-47
2022/04/05 02:02:50;;;;;;;4.33;4.03;;;;;21.10;99293.00;;;;2072047;28;20681;-47
2022/04/05 02:03:50;;;;;;;3.77;3.57;;;;;21.10;99307.00;;;;2071854;28;20236;-47
2022/04/05 02:04:51;;;;;;;4.27;3.97;;;;;21.00;99298.00;;;;2079159;28;20214;-47
2022/04/05 02:05:51;;;;;;;4.07;3.77;;;;;21.00;99309.00;;;;2078615;28;20210;-47
2022/04/05 02:06:51;;;;;;;3.87;3.57;;;;;21.10;99306.00;;;;2071210;28;20217;-47
2022/04/05 02:07:52;;;;;;;3.70;3.50;;;;;21.10;99300.00;;;;2071201;28;20206;-46
2022/04/05 02:08:52;;;;;;;4.23;3.70;;;;;21.10;99311.00;;;;2072126;28;20210;-47
2022/04/05 02:09:53;;;;;;;4.07;3.77;;;;;21.10;99314.00;;;;2071901;28;20695;-47
2022/04/05 02:10:53;;;;;;;4.17;3.87;;;;;21.10;99315.00;;;;2071965;28;20221;-47
2022/04/05 02:11:53;;;;;;;3.40;3.20;;;;;21.00;99309.00;;;;2071857;28;20713;-47
2022/04/05 02:12:54;;;;;;;3.73;3.43;;;;;21.00;99322.00;;;;2071591;28;20596;-47
2022/04/05 02:13:54;;;;;;;3.50;3.30;;;;;21.00;99314.00;;;;2071968;28;20575;-46
2022/04/05 02:14:54;;;;;;;3.93;3.53;;;;;21.00;99328.00;;;;2071852;28;20225;-46
2022/04/05 02:15:55;;;;;;;3.80;3.50;;;;;21.00;99321.00;;;;2073351;28;20741;-47
2022/04/05 02:16:55;;;;;;;3.93;3.63;;;;;21.00;99329.00;;;;2076995;28;20752;-47
2022/04/05 02:17:55;;;;;;;3.80;3.50;;;;;21.00;99315.00;;;;2070994;28;21113;-47
2022/04/05 02:18:56;;;;;;;3.47;3.27;;;;;21.00;99312.00;;;;2071493;28;20225;-47
2022/04/05 02:19:56;;;;;;;4.03;3.73;;;;;21.00;99312.00;;;;2071412;28;20217;-47
2022/04/05 02:20:57;;;;;;;3.70;3.43;;;;;21.00;99316.00;;;;2071565;28;20210;-46
2022/04/05 02:21:57;;;;;;;3.30;3.10;;;;;21.00;99324.00;;;;2071700;28;20698;-47
2022/04/05 02:22:57;;;;;;;3.40;3.10;;;;;21.00;99323.00;;;;2069783;28;20302;-46
2022/04/05 02:23:58;;;;;;;3.30;3.10;;;;;21.00;99317.00;;;;2077021;28;20216;-46
2022/04/05 02:25:01;;;;;;;3.50;3.30;;;;;21.00;99326.00;;;;2076385;28;20209;-47
2022/04/05 02:26:01;;;;;;;3.60;3.40;;;;;21.00;99332.00;;;;2070544;28;20210;-47
2022/04/05 02:27:02;;;;;;;3.27;2.90;;;;;21.00;99324.00;;;;2071188;28;20214;-47
2022/04/05 02:28:02;;;;;;;3.30;3.10;;;;;21.00;99327.00;;;;2071154;28;20225;-46
2022/04/05 02:29:03;;;;;;;3.40;3.20;;;;;21.00;99326.00;;;;2071051;28;20290;-46
2022/04/05 02:30:03;;;;;;;3.33;3.13;;;;;21.00;99325.00;;;;2071020;28;20214;-47
2022/04/05 02:31:04;;;;;;;2.90;2.70;;;;;21.00;99329.00;;;;2075922;28;20299;-46
2022/04/05 02:32:04;;;;;;;3.40;3.10;;;;;21.00;99337.00;;;;2079833;28;20232;-46
2022/04/05 02:33:05;;;;;;;2.77;2.57;;;;;21.00;99332.00;;;;2079753;28;20332;-46
2022/04/05 02:34:05;;;;;;;3.27;3.07;;;;;21.00;99340.00;;;;2079848;28;20729;-46
2022/04/05 02:35:08;;;;;;;2.83;2.63;;;;;21.00;99342.00;;;;2079769;28;20216;-46
2022/04/05 02:36:08;;;;;;;2.70;2.50;;;;;21.00;99347.00;;;;2079150;28;20217;-47
2022/04/05 02:37:09;;;;;;;3.07;2.87;;;;;21.00;99346.00;;;;2079513;28;20268;-47
2022/04/05 02:38:09;;;;;;;3.20;3.00;;;;;21.00;99347.00;;;;2079642;28;20218;-47
2022/04/05 02:39:11;;;;;;;3.20;3.00;;;;;21.00;99346.00;;;;2079632;28;20218;-46
2022/04/05 02:40:11;;;;;;;3.67;3.47;;;;;21.00;99346.00;;;;2077971;28;20227;-46
2022/04/05 02:41:12;;;;;;;3.10;2.90;;;;;20.90;99347.00;;;;2079842;28;20256;-46
2022/04/05 02:42:12;;;;;;;3.20;3.00;;;;;21.00;99348.00;;;;2079680;28;20897;-47
2022/04/05 02:43:12;;;;;;;2.97;2.77;;;;;21.00;99343.00;;;;2079441;28;20210;-47
2022/04/05 02:44:13;;;;;;;2.87;2.67;;;;;21.00;99341.00;;;;2078330;28;20213;-47
2022/04/05 02:45:13;;;;;;;3.57;3.27;;;;;21.00;99334.00;;;;2071837;28;20249;-46
2022/04/05 02:46:13;;;;;;;3.27;3.07;;;;;20.90;99336.00;;;;2075019;28;20228;-46
2022/04/05 02:47:15;;;;;;;2.80;2.60;;;;;20.90;99341.00;;;;2075568;28;20221;-46
2022/04/05 02:48:16;;;;;;;2.90;2.70;;;;;20.90;99336.00;;;;2074614;28;20229;-46
2022/04/05 02:49:16;;;;;;;2.85;2.65;;;;;20.90;99340.00;;;;2077993;28;20275;-46
2022/04/05 02:50:18;;;;;;;3.40;3.20;;;;;20.90;99340.00;;;;2078907;28;20307;-46
2022/04/05 02:51:19;;;;;;;3.13;2.85;;;;;20.90;99342.00;;;;2075513;28;20453;-46
2022/04/05 02:52:19;;;;;;;3.17;2.90;;;;;20.90;99339.00;;;;2079514;28;20241;-46
2022/04/05 02:53:19;;;;;;;2.93;2.73;;;;;20.90;99333.00;;;;2075731;28;20217;-46
2022/04/05 02:54:20;;;;;;;2.70;2.50;;;;;20.90;99336.00;;;;2076394;28;20220;-47
2022/04/05 02:55:21;;;;;;;2.37;2.20;;;;;20.90;99337.00;;;;2075375;28;20232;-46
2022/04/05 02:56:21;;;;;;;3.40;3.10;;;;;20.90;99343.00;;;;2073196;28;20620;-46
2022/04/05 02:57:21;;;;;;;2.70;2.50;;;;;20.90;99340.00;;;;2073883;28;20503;-46
2022/04/05 02:58:22;;;;;;;3.33;3.03;;;;;20.90;99343.00;;;;2078423;28;20217;-46
2022/04/05 02:59:22;;;;;;;2.80;2.37;;;;;20.90;99344.00;;;;2075850;28;20300;-46
2022/04/05 03:00:22;;;;;;;2.50;2.30;;;;;20.90;99345.00;;;;2074795;28;20221;-46
2022/04/05 03:01:23;;;;;;;2.40;2.30;;;;;20.90;99341.00;;;;2074642;28;20218;-46
2022/04/05 03:02:23;;;;;;;3.20;3.00;;;;;20.90;99346.00;;;;2078446;28;20221;-46
2022/04/05 03:03:24;;;;;;;2.90;2.70;;;;;20.90;99345.00;;;;2075959;28;20249;-46
2022/04/05 03:04:24;;;;;;;2.60;2.40;;;;;20.90;99341.00;;;;2075422;28;20249;-46
2022/04/05 03:05:24;;;;;;;2.77;2.57;;;;;20.90;99348.00;;;;2072663;28;20218;-46
2022/04/05 03:06:25;;;;;;;2.70;2.50;;;;;20.80;99347.00;;;;2079926;28;20304;-46
2022/04/05 03:07:26;;;;;;;2.80;2.60;;;;;20.90;99354.00;;;;2075985;28;20229;-46
2022/04/05 03:08:26;;;;;;;2.47;2.27;;;;;20.80;99356.00;;;;2074926;28;20482;-47
2022/04/05 03:09:26;;;;;;;2.50;2.30;;;;;20.90;99349.00;;;;2074860;28;20217;-46
2022/04/05 03:10:29;;;;;;;2.50;2.30;;;;;20.90;99349.00;;;;2071853;28;20252;-46
2022/04/05 03:11:29;;;;;;;2.60;2.40;;;;;20.90;99356.00;;;;2070222;28;20242;-47
2022/04/05 03:12:30;;;;;;;2.50;2.30;;;;;20.80;99349.00;;;;2072635;28;20213;-46
2022/04/05 03:13:31;;;;;;;2.50;2.30;;;;;20.90;99350.00;;;;2079917;28;20225;-46
2022/04/05 03:14:31;;;;;;;2.13;2.03;;;;;20.90;99359.00;;;;2073343;28;20252;-46
2022/04/05 03:15:32;;;;;;;2.30;2.20;;;;;20.90;99362.00;;;;2078312;28;20603;-46
2022/04/05 03:16:37;;;;;;;1.97;1.87;;;;;20.90;99352.00;;;;2075879;28;20668;-47
2022/04/05 03:17:41;;;;;;;2.67;2.47;;;;;20.90;99352.00;;;;2079839;28;20296;-46
2022/04/05 03:18:45;;;;;;;2.05;1.95;;;;;20.80;99359.00;;;;2071984;28;20265;-46
2022/04/05 03:19:46;;;;;;;2.10;2.00;;;;;20.80;99352.00;;;;2078389;28;20205;-46
2022/04/05 03:20:46;;;;;;;2.57;2.10;;;;;20.80;99370.00;;;;2074113;28;20548;-46
2022/04/05 03:21:46;;;;;;;2.10;2.00;;;;;20.80;99353.00;;;;2080104;28;20685;-47
2022/04/05 03:22:47;;;;;;;1.87;1.77;;;;;20.80;99359.00;;;;2079797;28;20747;-46
2022/04/05 03:23:47;;;;;;;2.40;2.20;;;;;20.80;99357.00;;;;2079680;28;20697;-47
2022/04/05 03:24:47;;;;;;;2.23;2.03;;;;;20.80;99357.00;;;;2079683;28;20221;-46
2022/04/05 03:25:48;;;;;;;2.00;1.90;;;;;20.80;99361.00;;;;2078601;28;20220;-46
2022/04/05 03:26:49;;;;;;;1.57;1.47;;;;;20.80;99367.00;;;;2071654;28;20238;-46
2022/04/05 03:27:49;;;;;;;2.30;2.20;;;;;20.80;99361.00;;;;2075900;28;20453;-47
2022/04/05 03:28:49;;;;;;;2.13;2.00;;;;;20.80;99353.00;;;;2073690;28;20217;-47
2022/04/05 03:29:50;;;;;;;2.10;2.00;;;;;20.80;99358.00;;;;2076231;28;20236;-46
2022/04/05 03:30:50;;;;;;;1.90;1.80;;;;;20.80;99358.00;;;;2078621;28;21107;-46
2022/04/05 03:31:50;;;;;;;2.03;1.93;;;;;20.80;99365.00;;;;2079076;28;20245;-46
2022/04/05 03:32:51;;;;;;;1.97;1.87;;;;;20.80;99362.00;;;;2074242;28;20218;-46
2022/04/05 03:33:51;;;;;;;1.90;1.80;;;;;20.80;99366.00;;;;2071211;28;20225;-47
2022/04/05 03:34:52;;;;;;;1.93;1.83;;;;;20.80;99355.00;;;;2071144;28;20237;-46
2022/04/05 03:35:54;;;;;;;1.92;1.80;;;;;20.80;99361.00;;;;2070491;28;20313;-46
2022/04/05 03:36:55;;;;;;;1.60;1.50;;;;;20.80;99363.00;;;;2070954;28;20225;-47
2022/04/05 03:37:56;;;;;;;1.70;1.60;;;;;20.80;99362.00;;;;2071258;28;20237;-47
2022/04/05 03:38:56;;;;;;;1.83;1.73;;;;;20.80;99356.00;;;;2070173;28;20222;-47
2022/04/05 03:39:57;;;;;;;1.63;1.53;;;;;20.80;99358.00;;;;2078831;28;20452;-47
2022/04/05 03:40:57;;;;;;;1.80;1.70;;;;;20.80;99357.00;;;;2077838;28;20213;-47
2022/04/05 03:41:58;;;;;;;2.00;1.80;;;;;20.70;99364.00;;;;2071222;28;20249;-47
2022/04/05 03:42:58;;;;;;;1.53;1.43;;;;;20.70;99357.00;;;;2078386;28;20712;-47
2022/04/05 03:43:58;;;;;;;1.80;1.70;;;;;20.70;99356.00;;;;2079344;28;20721;-46
2022/04/05 03:44:59;;;;;;;1.70;1.60;;;;;20.70;99360.00;;;;2078062;28;21070;-47
2022/04/05 03:46:00;;;;;;;1.67;1.58;;;;;20.80;99357.00;;;;2069781;28;20222;-47
2022/04/05 03:47:01;;;;;;;1.57;1.47;;;;;20.70;99364.00;;;;2073769;28;20658;-47
2022/04/05 03:48:01;;;;;;;1.40;1.30;;;;;20.70;99363.00;;;;2079225;28;20213;-47
2022/04/05 03:49:01;;;;;;;1.43;1.33;;;;;20.70;99364.00;;;;2079026;28;20693;-46
2022/04/05 03:50:02;;;;;;;1.60;1.50;;;;;20.70;99359.00;;;;2075647;28;20663;-47
2022/04/05 03:51:09;;;;;;;1.43;1.30;;;;;20.70;99353.00;;;;2079336;28;20217;-46
2022/04/05 03:52:09;;;;;;;1.90;1.80;;;;;20.70;99356.00;;;;2075486;28;20217;-47
2022/04/05 03:53:09;;;;;;;1.50;1.40;;;;;20.70;99351.00;;;;2079454;28;20223;-47
2022/04/05 03:54:10;;;;;;;1.50;1.40;;;;;20.70;99371.00;;;;2076362;28;20225;-47
2022/04/05 03:55:11;;;;;;;1.50;1.40;;;;;20.70;99362.00;;;;2070815;28;20218;-47
2022/04/05 03:56:11;;;;;;;1.50;1.40;;;;;20.70;99363.00;;;;2074847;28;20321;-47
2022/04/05 03:57:12;;;;;;;1.40;1.30;;;;;20.70;99360.00;;;;2079236;28;20686;-47
2022/04/05 03:58:12;;;;;;;1.33;1.20;;;;;20.70;99369.00;;;;2078925;28;20721;-47
2022/04/05 03:59:12;;;;;;;1.50;1.40;;;;;20.70;99368.00;;;;2079025;28;20631;-47
2022/04/05 04:00:13;;;;;;;1.47;1.37;;;;;20.70;99358.00;;;;2074618;28;20213;-47
2022/04/05 04:01:14;;;;;;;1.30;1.10;;;;;20.70;99361.00;;;;2071156;28;20207;-47
2022/04/05 04:02:14;;;;;;;1.50;1.40;;;;;20.80;99355.00;;;;2070989;28;20211;-47
2022/04/05 04:03:14;;;;;;;1.60;1.50;;;;;20.70;99355.00;;;;2070576;28;20336;-47
2022/04/05 04:04:15;;;;;;;1.40;1.30;;;;;20.70;99355.00;;;;2071761;28;20217;-47
2022/04/05 04:05:19;;;;;;;1.73;1.43;;;;;20.70;99360.00;;;;2079135;28;20209;-47
2022/04/05 04:06:19;;;;;;;1.33;1.23;;;;;20.70;99355.00;;;;2076042;28;20210;-47
2022/04/05 04:07:19;;;;;;;1.80;1.40;;;;;20.70;99363.00;;;;2074722;28;20213;-47
2022/04/05 04:08:20;;;;;;;1.30;1.20;;;;;20.70;99358.00;;;;2077769;28;20209;-47
2022/04/05 04:09:20;;;;;;;1.50;1.40;;;;;20.70;99360.00;;;;2079241;28;20252;-47
2022/04/05 04:10:20;;;;;;;1.33;1.10;;;;;20.70;99363.00;;;;2072467;28;20214;-46
2022/04/05 04:11:21;;;;;;;1.20;1.10;;;;;20.70;99354.00;;;;2070963;28;20277;-47
2022/04/05 04:12:21;;;;;;;1.30;1.20;;;;;20.70;99355.00;;;;2070993;28;20758;-47
2022/04/05 04:13:21;;;;;;;1.40;1.30;;;;;20.70;99366.00;;;;2069502;28;20698;-47
2022/04/05 04:14:22;;;;;;;1.43;1.33;;;;;20.70;99369.00;;;;2069777;28;20545;-46
2022/04/05 04:15:22;;;;;;;1.20;1.10;;;;;20.70;99361.00;;;;2069456;28;20214;-45
2022/04/05 04:16:22;;;;;;;1.30;1.20;;;;;20.60;99365.00;;;;2074499;28;20581;-46
2022/04/05 04:17:23;;;;;;;1.57;1.47;;;;;20.70;99369.00;;;;2078169;28;20277;-46
2022/04/05 04:18:23;;;;;;;1.50;1.40;;;;;20.70;99362.00;;;;2078748;28;20267;-46
2022/04/05 04:19:23;;;;;;;1.70;1.50;;;;;20.70;99368.00;;;;2078393;28;20221;-46
2022/04/05 04:20:24;;;;;;;1.00;0.90;;;;;20.70;99367.00;;;;2078651;28;20225;-46
2022/04/05 04:21:24;;;;;;;1.30;1.20;;;;;20.70;99359.00;;;;2076804;28;20240;-46
2022/04/05 04:22:26;;;;;;;1.33;1.00;;;;;20.70;99363.00;;;;2070262;28;20214;-46
2022/04/05 04:23:27;;;;;;;1.20;1.10;;;;;20.60;99359.00;;;;2070941;28;20569;-46
2022/04/05 04:24:27;;;;;;;1.30;1.20;;;;;20.60;99365.00;;;;2070398;28;20230;-46
2022/04/05 04:25:27;;;;;;;1.30;1.20;;;;;20.70;99366.00;;;;2072682;28;20229;-46
2022/04/05 04:26:28;;;;;;;1.43;1.33;;;;;20.70;99372.00;;;;2070873;28;20226;-47
2022/04/05 04:27:28;;;;;;;1.30;1.20;;;;;20.60;99361.00;;;;2070323;28;20233;-47
2022/04/05 04:28:28;;;;;;;1.10;0.97;;;;;20.70;99367.00;;;;2070570;28;20234;-47
2022/04/05 04:29:29;;;;;;;1.60;1.50;;;;;20.70;99360.00;;;;2071814;28;20210;-47
2022/04/05 04:30:29;;;;;;;1.43;1.30;;;;;20.60;99370.00;;;;2079004;28;20221;-47
2022/04/05 04:31:30;;;;;;;1.33;1.10;;;;;20.60;99362.00;;;;2079097;28;20260;-47
2022/04/05 04:32:30;;;;;;;1.13;1.03;;;;;20.60;99364.00;;;;2075436;28;20321;-46
2022/04/05 04:33:31;;;;;;;1.43;1.33;;;;;20.60;99364.00;;;;2070009;28;20980;-47
2022/04/05 04:34:31;;;;;;;1.50;1.40;;;;;20.60;99373.00;;;;2070195;28;20222;-46
2022/04/05 04:35:31;;;;;;;1.40;1.23;;;;;20.30;99372.00;;;;2069962;28;20226;-47
2022/04/05 04:36:32;;;;;;;1.20;1.10;;;;;20.60;99366.00;;;;2070824;28;20264;-47
2022/04/05 04:37:32;;;;;;;1.07;0.97;;;;;20.60;99363.00;;;;2070662;28;20593;-46
2022/04/05 04:38:32;;;;;;;1.33;1.07;;;;;20.60;99366.00;;;;2070716;28;20956;-47
2022/04/05 04:39:33;;;;;;;1.30;1.20;;;;;20.60;99361.00;;;;2070960;28;20687;-47
2022/04/05 04:40:34;;;;;;;1.30;1.10;;;;;20.60;99370.00;;;;2070821;28;20567;-47
2022/04/05 04:41:34;;;;;;;1.27;1.00;;;;;20.60;99372.00;;;;2070476;28;20222;-46
2022/04/05 04:42:35;;;;;;;1.27;1.17;;;;;20.60;99374.00;;;;2075848;28;20700;-47
2022/04/05 04:43:35;;;;;;;1.30;1.20;;;;;20.60;99375.00;;;;2078785;28;20217;-47
2022/04/05 04:44:35;;;;;;;1.73;1.30;;;;;20.60;99371.00;;;;2078123;28;20279;-47
2022/04/05 04:45:36;;;;;;;1.50;1.40;;;;;20.60;99366.00;;;;2077433;28;20634;-47
2022/04/05 04:46:36;;;;;;;2.10;1.10;;;;;20.60;99363.00;;;;2077759;28;20220;-46
2022/04/05 04:47:37;;;;;;;1.40;1.30;;;;;20.60;99372.00;;;;2070487;28;20241;-46
2022/04/05 04:48:37;;;;;;;1.60;1.47;;;;;20.50;99360.00;;;;2070194;28;20232;-47
2022/04/05 04:49:37;;;;;;;1.90;1.30;;;;;20.50;99366.00;;;;2070550;28;20694;-47
2022/04/05 04:50:38;;;;;;;1.67;1.37;;;;;20.60;99366.00;;;;2074892;28;20237;-46
2022/04/05 04:51:38;;;;;;;3.60;1.67;;;;;20.70;99366.00;;;;2078819;28;20214;-46
2022/04/05 04:52:38;;;;;;;1.27;1.17;;;;;20.70;99364.00;;;;2079008;28;20220;-46
2022/04/05 04:53:39;;;;;;;2.60;1.33;;;;;20.70;99365.00;;;;2078760;28;20237;-46
2022/04/05 04:54:40;;;;;;;1.83;1.23;;;;;20.80;99365.00;;;;2070728;28;20796;-47
2022/04/05 04:55:40;;;;;;;1.20;1.10;;;;;20.70;99365.00;;;;2069576;28;20464;-46
2022/04/05 04:56:40;;;;;;;1.43;1.23;;;;;20.70;99370.00;;;;2070530;28;20210;-47
2022/04/05 04:57:41;;;;;;;2.93;1.13;;;;;20.70;99363.00;;;;2073327;28;20244;-46
2022/04/05 04:58:41;;;;;;;6.50;1.37;;;;;20.70;99359.00;;;;2078239;28;20217;-47
2022/04/05 04:59:41;;;;;;;1.67;1.23;;;;;20.60;99352.00;;;;2078724;28;20206;-46
2022/04/05 05:00:42;;;;;;;1.63;1.33;;;;;20.60;99366.00;;;;2078727;28;20214;-46
2022/04/05 05:01:42;;;;;;;2.57;1.50;;;;;20.60;99372.00;;;;2078787;28;20244;-47
2022/04/05 05:02:46;;;;;;;3.60;1.53;;;;;20.70;99363.00;;;;2074782;28;20264;-47
2022/04/05 05:03:46;;;;;;;1.23;1.13;;;;;20.70;99366.00;;;;2069556;28;20211;-47